Time;durP1;ratioP1;P1;durP2;ratioP2;P2;SDS_P1;SDS_P2;PMS_P1;PMS_P2;Temp;Humidity;BMP_temperature;BMP_pressure;BME280_temperature;BME280_humidity;BME280_pressure;Samples;Min_cycle;Max_cycle;Signal;HPM_P1;HPM_P2
2021/12/02 00:01:48;;;;;;;;;5.75;4.00;;;;;9.39;61.59;99842.41;5059768;28;45845;-46
2021/12/02 00:04:13;;;;;;;;;3.75;2.25;;;;;9.39;61.66;99857.31;5059740;28;45411;-50
2021/12/02 00:06:39;;;;;;;;;3.50;3.50;;;;;9.34;61.78;99846.06;5059503;28;45323;-47
2021/12/02 00:09:04;;;;;;;;;5.00;3.50;;;;;9.30;61.89;99845.28;5059349;28;45328;-48
2021/12/02 00:11:30;;;;;;;;;4.00;2.00;;;;;9.30;61.68;99842.66;5059722;28;45236;-45
2021/12/02 00:13:58;;;;;;;;;4.00;4.00;;;;;9.33;61.69;99845.19;5059449;28;45474;-48
2021/12/02 00:22:03;;;;;;;;;2.75;2.75;;;;;9.30;61.71;99858.38;5059371;28;45387;-47
2021/12/02 00:24:34;;;;;;;;;2.25;2.00;;;;;9.30;61.82;99852.28;5058107;28;45505;-48
2021/12/02 00:27:00;;;;;;;;;3.50;3.50;;;;;9.29;61.63;99856.66;5059276;28;45806;-48
2021/12/02 00:29:29;;;;;;;;;3.75;3.50;;;;;9.30;61.67;99862.78;5059316;28;45311;-51
2021/12/02 00:31:54;;;;;;;;;5.25;4.25;;;;;9.26;61.88;99861.97;5059392;28;45268;-48
2021/12/02 00:34:22;;;;;;;;;5.25;3.75;;;;;9.27;61.80;99866.34;5060218;28;45257;-48
2021/12/02 00:36:48;;;;;;;;;3.00;2.75;;;;;9.26;61.89;99872.47;5061103;28;46269;-49
2021/12/02 00:39:17;;;;;;;;;4.50;3.50;;;;;9.26;61.71;99875.94;5061213;28;45314;-48
2021/12/02 00:41:43;;;;;;;;;4.00;4.00;;;;;9.27;61.77;99871.56;5062685;28;45243;-46
2021/12/02 00:44:09;;;;;;;;;5.75;5.00;;;;;9.26;61.83;99881.19;5062561;28;45337;-52
2021/12/02 00:46:36;;;;;;;;;6.00;4.25;;;;;9.26;62.00;99885.56;5062083;28;46234;-48
2021/12/02 00:49:04;;;;;;;;;6.00;4.25;;;;;9.26;61.86;99888.19;5062532;28;45248;-46
2021/12/02 00:51:31;;;;;;;;;4.75;2.25;;;;;9.29;61.82;99882.03;5062184;28;45359;-47
2021/12/02 00:54:02;;;;;;;;;3.50;3.50;;;;;9.29;61.81;99885.50;5062272;28;45281;-48
2021/12/02 00:56:27;;;;;;;;;7.25;3.75;;;;;9.29;61.84;99882.03;5061943;28;45375;-48
2021/12/02 00:58:55;;;;;;;;;3.50;3.00;;;;;9.30;61.82;99887.22;5062336;28;45355;-47
2021/12/02 01:01:26;;;;;;;;;4.00;3.00;;;;;9.32;62.01;99889.81;5062356;28;45434;-48
2021/12/02 01:03:57;;;;;;;;;3.00;2.25;;;;;9.32;61.98;99895.94;5062278;28;45449;-50
2021/12/02 01:06:24;;;;;;;;;5.50;3.00;;;;;9.35;61.83;99905.47;5061702;28;46212;-47
2021/12/02 01:08:49;;;;;;;;;3.75;3.75;;;;;9.33;61.63;99892.38;5060802;28;45343;-50
2021/12/02 01:11:17;;;;;;;;;3.00;3.00;;;;;9.34;61.97;99878.38;5062106;28;45165;-51
2021/12/02 01:13:42;;;;;;;;;4.00;4.00;;;;;9.36;61.99;99892.34;5062274;28;45241;-48
2021/12/02 01:16:08;;;;;;;;;4.00;3.75;;;;;9.36;61.79;99887.09;5061684;28;45230;-49
2021/12/02 01:18:33;;;;;;;;;3.00;3.00;;;;;9.35;62.08;99892.38;5062268;28;45203;-49
2021/12/02 01:21:01;;;;;;;;;4.50;4.00;;;;;9.31;62.17;99891.56;5061841;28;45495;-47
2021/12/02 01:23:30;;;;;;;;;5.00;5.00;;;;;9.32;62.11;99898.56;5062058;28;45631;-47
2021/12/02 01:26:06;;;;;;;;;3.25;3.25;;;;;9.31;62.08;99909.94;5061497;28;46155;-49
2021/12/02 01:28:32;;;;;;;;;6.25;3.00;;;;;9.28;62.19;99902.13;5061726;28;45234;-48
2021/12/02 01:30:58;;;;;;;;;3.50;3.50;;;;;9.30;62.29;99910.81;5062043;28;45321;-50
2021/12/02 01:33:26;;;;;;;;;6.00;4.75;;;;;9.27;62.15;99914.38;5061698;28;45415;-46
2021/12/02 01:35:58;;;;;;;;;5.75;4.00;;;;;9.30;62.00;99913.44;5061630;28;47054;-49
2021/12/02 01:38:26;;;;;;;;;9.50;7.25;;;;;9.30;62.01;99904.72;5061762;28;45342;-48
2021/12/02 01:40:52;;;;;;;;;5.00;4.25;;;;;9.30;62.10;99909.97;5061723;28;45383;-48
2021/12/02 01:43:19;;;;;;;;;6.25;6.25;;;;;9.31;62.28;99925.66;5061587;28;45339;-50
2021/12/02 01:45:45;;;;;;;;;9.00;7.75;;;;;9.30;62.22;99923.09;5060684;28;46252;-49
2021/12/02 01:48:19;;;;;;;;;6.25;5.00;;;;;9.31;62.30;99925.66;5075716;28;45268;-51
2021/12/02 01:50:59;;;;;;;;;8.50;7.00;;;;;9.32;62.21;99930.00;5061461;28;45457;-48
2021/12/02 01:53:31;;;;;;;;;7.25;7.00;;;;;9.33;62.28;99933.50;5061314;28;45292;-47
2021/12/02 01:56:09;;;;;;;;;9.00;7.00;;;;;9.33;62.01;99939.59;5061166;28;45355;-48
2021/12/02 01:58:41;;;;;;;;;8.00;6.75;;;;;9.36;62.18;99946.56;5061365;28;45603;-50
2021/12/02 02:01:14;;;;;;;;;7.75;7.00;;;;;9.35;62.33;99948.28;5061284;28;45220;-47
2021/12/02 02:03:41;;;;;;;;;5.75;5.75;;;;;9.38;62.08;99957.84;5061049;28;45240;-48
2021/12/02 02:06:09;;;;;;;;;6.50;6.00;;;;;9.38;62.21;99953.47;5059537;28;47315;-47
2021/12/02 02:08:37;;;;;;;;;7.50;7.00;;;;;9.37;62.17;99953.50;5061519;28;45262;-50
2021/12/02 02:11:02;;;;;;;;;8.50;8.00;;;;;9.40;62.10;99961.31;5059759;28;45454;-47
2021/12/02 02:13:28;;;;;;;;;13.50;8.00;;;;;9.37;62.10;99959.63;5059860;28;45380;-47
2021/12/02 02:15:54;;;;;;;;;8.75;6.25;;;;;9.38;62.20;99963.97;5060991;28;46675;-51
2021/12/02 02:21:03;;;;;;;;;11.75;8.25;;;;;9.40;62.40;99967.41;5060893;28;45432;-51
2021/12/02 02:23:32;;;;;;;;;10.25;8.25;;;;;9.40;62.33;99969.19;5061197;28;45336;-49
2021/12/02 02:25:59;;;;;;;;;8.50;7.00;;;;;9.39;62.18;99970.06;5060571;28;45286;-52
2021/12/02 02:28:25;;;;;;;;;6.75;6.75;;;;;9.43;62.16;99982.22;5060990;28;45248;-47
2021/12/02 02:30:51;;;;;;;;;6.00;6.00;;;;;9.41;62.18;99984.03;5060987;28;45374;-49
2021/12/02 02:33:19;;;;;;;;;5.50;5.50;;;;;9.42;62.28;99986.59;5061027;28;45389;-51
2021/12/02 02:35:45;;;;;;;;;6.25;6.25;;;;;9.42;62.22;99986.59;5060561;28;46053;-47
2021/12/02 02:38:11;;;;;;;;;11.00;9.50;;;;;9.42;62.13;99989.22;5060842;28;45276;-49
2021/12/02 02:40:40;;;;;;;;;6.00;6.00;;;;;9.43;62.22;99990.97;5059560;28;45344;-51
2021/12/02 02:43:08;;;;;;;;;7.50;4.50;;;;;9.45;62.14;99990.91;5060621;28;45422;-52
2021/12/02 02:45:35;;;;;;;;;5.00;5.00;;;;;9.46;62.23;99994.38;5055778;28;45433;-51
2021/12/02 02:48:00;;;;;;;;;6.25;5.25;;;;;9.46;62.04;99999.63;5060453;28;45263;-49
2021/12/02 02:50:26;;;;;;;;;8.25;5.75;;;;;9.46;62.21;100002.25;5060584;28;45436;-48
2021/12/02 02:53:10;;;;;;;;;5.00;3.75;;;;;9.46;62.16;99997.91;5059277;28;45488;-51
2021/12/02 02:55:36;;;;;;;;;6.00;4.75;;;;;9.44;62.05;100013.63;5060170;28;45275;-51
2021/12/02 02:58:27;;;;;;;;;4.00;3.00;;;;;9.44;62.12;100013.63;5059068;28;45247;-51
2021/12/02 03:01:23;;;;;;;;;4.00;4.00;;;;;9.44;62.34;100008.41;5059523;28;45489;-48
2021/12/02 03:04:03;;;;;;;;;2.00;2.00;;;;;9.44;62.40;100005.78;5060405;28;45308;-48
2021/12/02 03:09:40;;;;;;;;;3.25;3.00;;;;;9.43;62.06;100009.31;5058139;28;45551;-47
2021/12/02 03:17:09;;;;;;;;;4.00;4.00;;;;;9.43;62.14;100022.44;5060007;28;45350;-50
2021/12/02 03:19:40;;;;;;;;;5.00;3.00;;;;;9.44;61.94;100018.88;5060302;28;45552;-49
2021/12/02 03:22:06;;;;;;;;;2.75;2.75;;;;;9.42;62.23;100014.56;5060005;28;45377;-49
2021/12/02 03:24:31;;;;;;;;;3.00;3.00;;;;;9.41;61.87;100010.25;5058710;28;45552;-51
2021/12/02 03:26:57;;;;;;;;;3.50;2.50;;;;;9.40;62.17;100022.47;5059983;28;45615;-50
2021/12/02 03:29:22;;;;;;;;;5.25;4.00;;;;;9.34;61.95;100011.25;5058947;28;45286;-51
2021/12/02 03:31:48;;;;;;;;;4.50;2.75;;;;;9.40;61.93;100027.72;5059013;28;45510;-50
2021/12/02 03:34:15;;;;;;;;;1.25;1.25;;;;;9.40;61.90;100038.22;5060059;28;45669;-49
2021/12/02 03:36:41;;;;;;;;;3.75;3.00;;;;;9.37;61.82;100037.41;5059797;28;46408;-49
2021/12/02 03:39:09;;;;;;;;;2.00;1.75;;;;;9.34;61.88;100029.63;5059862;28;45304;-47
2021/12/02 03:41:35;;;;;;;;;3.00;3.00;;;;;9.34;61.74;100032.25;5058629;28;45331;-48
2021/12/02 03:44:01;;;;;;;;;3.25;1.25;;;;;9.35;61.94;100026.94;5058694;28;45498;-47
2021/12/02 03:46:27;;;;;;;;;2.00;2.00;;;;;9.34;61.88;100035.72;5059515;28;46307;-48
2021/12/02 03:48:54;;;;;;;;;0.50;0.50;;;;;9.34;61.84;100027.00;5059960;28;45239;-47
2021/12/02 03:51:20;;;;;;;;;3.50;2.00;;;;;9.30;61.46;100031.44;5059714;28;45362;-47
2021/12/02 03:53:46;;;;;;;;;2.00;2.00;;;;;9.31;61.72;100040.16;5059699;28;45248;-50
2021/12/02 03:56:12;;;;;;;;;3.50;2.00;;;;;9.29;61.46;100040.19;5059638;28;45461;-46
2021/12/02 03:58:40;;;;;;;;;2.75;2.00;;;;;9.27;61.65;100045.47;5059630;28;45327;-47
2021/12/02 04:01:07;;;;;;;;;2.00;1.00;;;;;9.27;61.56;100055.97;5059722;28;45245;-50
2021/12/02 04:03:33;;;;;;;;;2.00;1.00;;;;;9.26;61.36;100056.00;5059503;28;45301;-50
2021/12/02 04:05:59;;;;;;;;;2.75;1.00;;;;;9.22;61.52;100063.06;5059329;28;45406;-47
2021/12/02 04:08:39;;;;;;;;;2.00;1.00;;;;;9.19;61.48;100068.34;5059731;28;45366;-49
2021/12/02 04:16:20;;;;;;;;;1.75;0.00;;;;;9.10;61.17;100072.00;5062925;28;46178;-50
2021/12/02 04:18:45;;;;;;;;;1.00;1.00;;;;;9.07;61.18;100069.44;5062892;28;45331;-46
2021/12/02 04:21:11;;;;;;;;;2.25;1.00;;;;;9.05;61.13;100065.13;5062946;28;45252;-47
2021/12/02 04:23:37;;;;;;;;;1.00;1.00;;;;;9.04;61.17;100066.91;5063077;28;45293;-51
2021/12/02 04:26:03;;;;;;;;;2.00;1.00;;;;;8.97;61.00;100062.66;5062978;28;46432;-47
2021/12/02 04:28:29;;;;;;;;;2.25;1.75;;;;;8.96;61.09;100066.16;5063146;28;45256;-47
2021/12/02 04:30:54;;;;;;;;;0.50;0.00;;;;;8.97;60.86;100073.13;5063029;28;45264;-47
2021/12/02 04:33:19;;;;;;;;;2.25;1.00;;;;;8.94;60.97;100068.81;5062947;28;45343;-48
2021/12/02 04:35:45;;;;;;;;;0.25;0.25;;;;;8.91;60.93;100068.00;5062584;28;45301;-46
2021/12/02 04:38:10;;;;;;;;;0.75;0.75;;;;;8.88;60.93;100078.53;5062707;28;45228;-48
2021/12/02 04:40:36;;;;;;;;;1.00;1.00;;;;;8.85;60.92;100073.34;5062875;28;45227;-46
2021/12/02 04:43:02;;;;;;;;;0.75;0.75;;;;;8.81;60.90;100083.00;5062692;28;45414;-50
2021/12/02 04:45:28;;;;;;;;;3.25;1.00;;;;;8.72;60.65;100099.75;5062532;28;46233;-51
2021/12/02 04:47:53;;;;;;;;;1.25;1.25;;;;;8.68;60.42;100098.09;5062436;28;45236;-50
2021/12/02 04:50:18;;;;;;;;;1.00;1.00;;;;;8.67;60.45;100106.84;5062482;28;45386;-48
2021/12/02 04:52:44;;;;;;;;;1.00;1.00;;;;;8.65;60.44;100113.84;5062718;28;45208;-48
2021/12/02 04:55:10;;;;;;;;;1.00;1.00;;;;;8.59;60.35;100116.56;5062286;28;45134;-50
2021/12/02 04:57:36;;;;;;;;;1.00;0.75;;;;;8.59;60.06;100137.50;5062545;28;45429;-47
2021/12/02 05:00:04;;;;;;;;;0.50;0.50;;;;;8.53;60.13;100125.38;5062541;28;45375;-47
2021/12/02 05:02:30;;;;;;;;;3.00;2.00;;;;;8.50;59.95;100130.66;5062212;28;45501;-50
2021/12/02 05:04:55;;;;;;;;;3.00;1.00;;;;;8.44;59.95;100142.06;5060915;28;46155;-46
2021/12/02 05:07:20;;;;;;;;;1.00;1.00;;;;;8.43;60.08;100129.88;5062118;28;45241;-46
2021/12/02 05:09:46;;;;;;;;;1.00;1.00;;;;;8.38;60.04;100152.63;5062355;28;45219;-46
2021/12/02 05:12:11;;;;;;;;;2.00;1.00;;;;;8.35;59.95;100147.47;5062321;28;45217;-50
2021/12/02 05:14:36;;;;;;;;;2.25;0.75;;;;;8.34;60.27;100150.06;5060864;28;46048;-47
2021/12/02 05:17:02;;;;;;;;;1.75;1.00;;;;;8.24;60.16;100139.75;5061041;28;45442;-48
2021/12/02 05:19:27;;;;;;;;;4.00;1.50;;;;;8.27;59.91;100155.38;5062205;28;45435;-47
2021/12/02 05:21:52;;;;;;;;;2.50;1.00;;;;;8.24;59.67;100157.22;5060870;28;45256;-48
2021/12/02 05:24:18;;;;;;;;;1.75;1.75;;;;;8.19;59.89;100157.28;5061873;28;45343;-48
2021/12/02 05:26:43;;;;;;;;;1.25;1.25;;;;;8.16;60.14;100145.97;5077735;28;45826;-47
2021/12/02 05:29:08;;;;;;;;;0.75;0.75;;;;;8.11;60.05;100148.66;5061994;28;45276;-49
2021/12/02 05:31:34;;;;;;;;;1.50;1.50;;;;;8.06;60.05;100146.09;5061990;28;45235;-47
2021/12/02 05:33:59;;;;;;;;;2.75;1.00;;;;;8.06;59.85;100153.97;5061594;28;46091;-50
2021/12/02 05:36:25;;;;;;;;;3.25;1.25;;;;;8.04;59.92;100154.88;5061662;28;45355;-48
2021/12/02 05:38:50;;;;;;;;;3.25;1.00;;;;;7.97;60.03;100146.22;5061861;28;45302;-47
2021/12/02 05:41:17;;;;;;;;;4.00;3.00;;;;;7.96;59.94;100157.56;5061776;28;45222;-48
2021/12/02 05:43:43;;;;;;;;;1.25;1.25;;;;;7.91;60.17;100156.75;5061574;28;46344;-47
2021/12/02 05:46:09;;;;;;;;;4.75;2.75;;;;;7.87;59.99;100163.78;5060240;28;45391;-49
2021/12/02 05:48:34;;;;;;;;;3.75;1.00;;;;;7.84;59.85;100169.06;5061577;28;45473;-46
2021/12/02 05:51:00;;;;;;;;;3.50;1.00;;;;;7.80;60.10;100167.38;5061490;28;45408;-48
2021/12/02 05:53:25;;;;;;;;;1.75;1.75;;;;;7.75;59.64;100164.78;5061290;28;47067;-47
2021/12/02 05:55:51;;;;;;;;;2.00;2.00;;;;;7.75;59.67;100170.03;5061407;28;45350;-47
2021/12/02 05:58:16;;;;;;;;;0.75;0.75;;;;;7.69;59.77;100167.47;5060313;28;45247;-47
2021/12/02 06:00:42;;;;;;;;;3.50;3.00;;;;;7.69;59.91;100177.94;5061474;28;45241;-47
2021/12/02 06:03:08;;;;;;;;;5.00;4.00;;;;;7.65;59.73;100171.03;5059717;28;46126;-47
2021/12/02 06:05:33;;;;;;;;;5.00;3.00;;;;;7.66;59.82;100175.38;5061073;28;45291;-49
2021/12/02 06:08:02;;;;;;;;;4.75;3.00;;;;;7.63;59.80;100175.38;5059970;28;45403;-46
2021/12/02 06:10:27;;;;;;;;;2.00;2.00;;;;;7.62;59.61;100166.69;5061032;28;45869;-49
2021/12/02 06:12:53;;;;;;;;;4.25;2.00;;;;;7.64;59.82;100177.13;5061039;28;46000;-52
2021/12/02 06:15:19;;;;;;;;;1.00;0.00;;;;;7.64;59.90;100177.97;5060022;28;45345;-48
2021/12/02 06:17:46;;;;;;;;;3.75;2.25;;;;;7.62;59.88;100181.50;5061184;28;45443;-45
2021/12/02 06:20:14;;;;;;;;;2.25;2.00;;;;;7.64;59.86;100196.28;5060836;28;45378;-47
2021/12/02 06:22:39;;;;;;;;;2.25;2.00;;;;;7.64;59.87;100184.97;5060853;28;45266;-50
2021/12/02 06:27:38;;;;;;;;;2.50;1.00;;;;;7.58;59.74;100203.34;5047449;28;45518;-47
2021/12/02 06:30:03;;;;;;;;;2.50;2.00;;;;;7.55;59.72;100195.53;5060933;28;45314;-49
2021/12/02 06:32:29;;;;;;;;;1.50;1.50;;;;;7.53;59.73;100205.13;5060276;28;45586;-49
2021/12/02 06:34:54;;;;;;;;;4.50;2.00;;;;;7.51;59.68;100204.28;5060709;28;45288;-49
2021/12/02 06:37:19;;;;;;;;;4.75;2.50;;;;;7.43;59.75;100193.91;5060802;28;45233;-46
2021/12/02 06:39:45;;;;;;;;;4.75;2.00;;;;;7.43;59.64;100194.78;5059469;28;45362;-47
2021/12/02 06:42:11;;;;;;;;;2.25;2.25;;;;;7.45;59.75;100203.47;5060040;28;46234;-45
2021/12/02 06:44:36;;;;;;;;;4.50;2.75;;;;;7.43;59.67;100192.19;5071849;28;45463;-48
2021/12/02 06:47:02;;;;;;;;;1.75;1.75;;;;;7.43;59.60;100192.19;5058976;28;45316;-48
2021/12/02 06:49:30;;;;;;;;;3.00;3.00;;;;;7.42;59.59;100206.13;5060646;28;45320;-48
2021/12/02 06:51:56;;;;;;;;;2.00;2.00;;;;;7.40;59.60;100210.50;5060090;28;46643;-45
2021/12/02 06:54:21;;;;;;;;;4.50;3.25;;;;;7.39;59.72;100213.97;5060444;28;45434;-45
2021/12/02 06:56:47;;;;;;;;;2.50;2.25;;;;;7.37;59.66;100213.16;5060218;28;45516;-48
2021/12/02 06:59:12;;;;;;;;;2.75;2.75;;;;;7.38;59.73;100225.31;5060577;28;45496;-47
2021/12/02 07:01:37;;;;;;;;;3.00;2.00;;;;;7.36;59.51;100228.81;5058369;28;45392;-45
2021/12/02 07:04:03;;;;;;;;;3.00;2.00;;;;;7.36;59.75;100241.88;5055700;28;45296;-49
2021/12/02 07:06:28;;;;;;;;;2.25;2.25;;;;;7.32;59.54;100248.91;5058718;28;45449;-45
2021/12/02 07:08:54;;;;;;;;;2.75;1.25;;;;;7.29;59.49;100251.53;5059930;28;45505;-49
2021/12/02 07:11:19;;;;;;;;;2.00;2.00;;;;;7.27;59.62;100245.44;5051278;28;46950;-47
2021/12/02 07:13:47;;;;;;;;;5.50;3.00;;;;;7.25;59.57;100255.06;5056413;28;45240;-45
2021/12/02 07:16:12;;;;;;;;;2.25;2.00;;;;;7.24;59.55;100272.47;5060327;28;45316;-44
2021/12/02 07:18:47;;;;;;;;;3.00;3.00;;;;;7.23;59.72;100277.72;5059691;28;45615;-47
2021/12/02 07:21:12;;;;;;;;;3.25;2.00;;;;;7.21;59.69;100275.13;5054918;28;46327;-45
2021/12/02 07:23:38;;;;;;;;;3.25;2.00;;;;;7.21;59.68;100276.88;5069308;28;45297;-44
2021/12/02 07:26:03;;;;;;;;;3.50;3.50;;;;;7.20;59.50;100275.16;5059916;28;45312;-49
2021/12/02 07:28:31;;;;;;;;;2.50;2.50;;;;;7.18;59.87;100279.50;5059883;28;45445;-49
2021/12/02 07:30:56;;;;;;;;;4.50;2.00;;;;;7.15;59.67;100273.41;5059610;28;46874;-45
2021/12/02 07:33:26;;;;;;;;;4.00;2.25;;;;;7.16;59.56;100280.38;5050953;28;45323;-48
2021/12/02 07:35:52;;;;;;;;;2.00;2.00;;;;;7.16;59.73;100272.53;5058457;28;45310;-45
2021/12/02 07:38:18;;;;;;;;;1.75;1.75;;;;;7.08;59.65;100269.13;5059748;28;45450;-45
2021/12/02 07:40:44;;;;;;;;;3.50;2.00;;;;;7.14;59.50;100287.38;5038536;28;46032;-45
2021/12/02 07:43:09;;;;;;;;;2.50;2.00;;;;;7.18;59.57;100297.81;5049599;28;45366;-44
2021/12/02 07:45:35;;;;;;;;;3.00;1.00;;;;;7.18;59.45;100300.41;5043911;28;45329;-46
2021/12/02 07:48:03;;;;;;;;;2.00;2.00;;;;;7.16;59.43;100303.91;5063142;28;45524;-45
2021/12/02 07:50:28;;;;;;;;;3.00;2.00;;;;;7.14;59.37;100305.69;5063003;28;46052;-48
2021/12/02 07:53:03;;;;;;;;;3.75;3.00;;;;;7.13;59.59;100301.31;5063141;28;45234;-44
2021/12/02 07:55:30;;;;;;;;;5.00;3.00;;;;;7.10;59.52;100290.88;5063423;28;45469;-46
2021/12/02 07:57:56;;;;;;;;;8.00;7.00;;;;;7.14;59.50;100299.56;5061853;28;45499;-45
2021/12/02 08:00:28;;;;;;;;;2.50;1.50;;;;;7.15;59.54;100306.53;5064896;28;46407;-45
2021/12/02 08:02:55;;;;;;;;;3.50;2.75;;;;;7.14;59.49;100315.25;5064460;28;45366;-45
2021/12/02 08:05:24;;;;;;;;;4.75;3.75;;;;;7.15;59.31;100319.59;5062826;28;45513;-47
2021/12/02 08:07:51;;;;;;;;;3.00;3.00;;;;;7.15;59.49;100323.06;5058768;28;45281;-45
2021/12/02 08:10:17;;;;;;;;;2.75;2.75;;;;;7.16;59.39;100308.28;5059323;28;46433;-46
2021/12/02 08:12:49;;;;;;;;;5.75;4.75;;;;;7.18;59.45;100311.72;5063450;28;45437;-47
2021/12/02 08:15:22;;;;;;;;;1.00;1.00;;;;;7.19;59.47;100320.47;5067257;28;45874;-49
2021/12/02 08:17:47;;;;;;;;;2.00;2.00;;;;;7.22;59.52;100323.03;5061994;28;45422;-45
2021/12/02 08:20:14;;;;;;;;;4.50;2.75;;;;;7.21;59.39;100321.28;5062518;28;46081;-44
2021/12/02 08:22:40;;;;;;;;;3.75;2.00;;;;;7.24;59.33;100327.38;5070187;28;45433;-45
2021/12/02 08:25:07;;;;;;;;;5.50;4.00;;;;;7.24;59.51;100324.75;5062767;28;45284;-43
2021/12/02 08:27:33;;;;;;;;;1.75;1.75;;;;;7.30;59.55;100334.31;5064561;28;45529;-45
2021/12/02 08:30:01;;;;;;;;;1.50;1.50;;;;;7.33;59.64;100331.66;5062628;28;46269;-44
2021/12/02 08:32:26;;;;;;;;;2.75;1.75;;;;;7.36;59.45;100331.66;5056747;28;45266;-44
2021/12/02 08:34:54;;;;;;;;;4.00;2.00;;;;;7.37;59.54;100333.41;5046879;28;45385;-45
2021/12/02 08:37:19;;;;;;;;;2.75;2.75;;;;;7.45;59.44;100346.41;5064116;28;45459;-46
2021/12/02 08:39:46;;;;;;;;;4.25;2.75;;;;;7.46;59.41;100343.78;5062223;28;45311;-46
2021/12/02 08:42:12;;;;;;;;;2.75;1.50;;;;;7.51;59.46;100353.31;5062350;28;45238;-44
2021/12/02 08:44:40;;;;;;;;;1.00;0.00;;;;;7.53;59.40;100359.41;5058718;28;45307;-44
2021/12/02 08:47:08;;;;;;;;;2.00;2.00;;;;;7.54;59.35;100356.78;5062093;28;45414;-44
2021/12/02 08:49:33;;;;;;;;;2.00;2.00;;;;;7.57;59.40;100359.38;5062169;28;46333;-46
2021/12/02 08:51:59;;;;;;;;;4.25;2.00;;;;;7.59;59.56;100362.00;5062019;28;45315;-44
2021/12/02 08:54:24;;;;;;;;;3.25;3.25;;;;;7.59;59.40;100370.69;5068880;28;45480;-46
2021/12/02 08:56:49;;;;;;;;;7.50;2.75;;;;;7.60;59.55;100361.13;5057755;28;45576;-44
2021/12/02 08:59:16;;;;;;;;;5.25;2.75;;;;;7.62;59.44;100359.34;5055610;28;46085;-43
2021/12/02 09:01:42;;;;;;;;;3.00;3.00;;;;;7.62;59.31;100367.19;5055469;28;45395;-44
2021/12/02 09:04:07;;;;;;;;;4.50;3.25;;;;;7.63;59.44;100366.31;5063891;28;45341;-45
2021/12/02 09:06:33;;;;;;;;;2.00;2.00;;;;;7.64;59.35;100374.13;5061588;28;45234;-44
2021/12/02 09:09:00;;;;;;;;;5.50;5.00;;;;;7.64;59.31;100373.28;5067913;28;45337;-43
2021/12/02 09:11:30;;;;;;;;;6.50;3.75;;;;;7.60;59.01;100366.34;5060928;28;45350;-44
2021/12/02 09:13:58;;;;;;;;;11.50;10.50;;;;;7.65;59.43;100383.72;5062877;28;45421;-44
2021/12/02 09:16:25;;;;;;;;;5.25;3.00;;;;;7.66;59.34;100387.22;5067104;27;45519;-44
2021/12/02 09:18:51;;;;;;;;;4.75;3.50;;;;;7.67;59.09;100378.47;5060068;28;47353;-44
2021/12/02 09:21:16;;;;;;;;;5.75;4.25;;;;;7.68;59.16;100384.59;5058558;28;45455;-45
2021/12/02 09:23:41;;;;;;;;;6.75;5.00;;;;;7.69;59.34;100392.41;5061744;28;45425;-49
2021/12/02 09:26:07;;;;;;;;;5.00;4.00;;;;;7.69;59.48;100405.50;5061758;28;45241;-43
2021/12/02 09:28:32;;;;;;;;;5.00;3.00;;;;;7.71;59.38;100405.47;5061666;28;45989;-45
2021/12/02 09:30:58;;;;;;;;;2.50;2.50;;;;;7.73;59.40;100420.28;5061563;28;45268;-44
2021/12/02 09:33:23;;;;;;;;;6.75;4.25;;;;;7.75;59.22;100415.06;5061844;28;45569;-45
2021/12/02 09:35:49;;;;;;;;;5.25;2.00;;;;;7.77;59.56;100422.00;5060857;28;45304;-48
2021/12/02 09:38:14;;;;;;;;;4.50;3.00;;;;;7.79;59.39;100416.75;5059293;28;46170;-46
2021/12/02 09:40:41;;;;;;;;;4.00;2.00;;;;;7.86;59.26;100417.56;5061893;28;45492;-46
2021/12/02 09:43:10;;;;;;;;;4.75;3.00;;;;;7.92;59.32;100431.50;5066581;27;45326;-45
2021/12/02 09:45:36;;;;;;;;;5.00;2.75;;;;;7.98;59.24;100422.69;5057869;28;45565;-45
2021/12/02 09:48:01;;;;;;;;;3.50;3.00;;;;;8.03;59.50;100425.28;5061000;28;46239;-44
2021/12/02 09:50:33;;;;;;;;;4.50;3.50;;;;;8.06;59.49;100422.63;5059517;28;45384;-43
2021/12/02 09:53:20;;;;;;;;;4.00;2.75;;;;;8.12;59.39;100417.34;5056491;28;45273;-43
2021/12/02 09:58:18;;;;;;;;;3.00;3.00;;;;;8.15;59.38;100427.81;5059894;28;46044;-45
2021/12/02 10:00:48;;;;;;;;;2.25;2.25;;;;;8.20;59.22;100419.88;5060397;28;45434;-45
2021/12/02 10:03:27;;;;;;;;;3.50;2.00;;;;;8.25;59.35;100432.06;5052991;28;45403;-48
2021/12/02 10:06:08;;;;;;;;;4.00;2.25;;;;;8.29;58.99;100443.38;5064546;28;45597;-43
2021/12/02 10:09:07;;;;;;;;;2.00;2.00;;;;;8.34;59.14;100452.06;5060454;28;45433;-45
2021/12/02 10:11:46;;;;;;;;;2.50;2.50;;;;;8.37;59.23;100454.63;5059486;28;45191;-48
2021/12/02 10:14:22;;;;;;;;;3.50;2.50;;;;;8.38;59.30;100437.19;5059776;28;45335;-47
2021/12/02 10:16:50;;;;;;;;;6.00;2.50;;;;;8.44;59.22;100448.47;5060670;28;45381;-46
2021/12/02 10:19:26;;;;;;;;;3.25;1.00;;;;;8.48;59.02;100438.84;5060752;28;47005;-45
2021/12/02 10:21:57;;;;;;;;;3.50;2.50;;;;;8.53;59.16;100441.41;5060666;28;45357;-46
2021/12/02 10:24:28;;;;;;;;;4.50;4.00;;;;;8.55;58.76;100437.03;5061168;28;45314;-45
2021/12/02 10:26:58;;;;;;;;;5.00;4.00;;;;;8.59;58.96;100439.59;5060875;28;45165;-44
2021/12/02 10:29:28;;;;;;;;;4.50;4.00;;;;;8.64;58.79;100422.97;5070677;28;46428;-43
2021/12/02 10:32:08;;;;;;;;;6.00;3.75;;;;;8.67;58.55;100439.53;5064031;27;45275;-45
2021/12/02 10:34:55;;;;;;;;;5.00;3.50;;;;;8.67;58.89;100431.66;5059508;28;45338;-44
2021/12/02 10:37:24;;;;;;;;;2.50;1.50;;;;;8.77;58.43;100435.03;5049366;28;45478;-45
2021/12/02 10:40:12;;;;;;;;;3.25;3.25;;;;;8.83;58.61;100426.22;5060522;28;46550;-44
2021/12/02 10:42:42;;;;;;;;;3.50;3.50;;;;;8.91;58.51;100433.13;5060692;28;45358;-44
2021/12/02 10:45:22;;;;;;;;;4.00;2.00;;;;;8.91;58.54;100420.00;5071568;28;45239;-43
2021/12/02 10:47:49;;;;;;;;;2.25;2.25;;;;;9.09;58.48;100423.28;5059114;28;45289;-44
2021/12/02 10:50:15;;;;;;;;;3.00;2.00;;;;;9.21;58.09;100425.75;5059971;28;45566;-45
2021/12/02 10:52:41;;;;;;;;;3.00;2.00;;;;;9.32;58.28;100419.47;5060702;28;45243;-46
2021/12/02 10:55:10;;;;;;;;;5.75;4.75;;;;;9.42;58.33;100419.34;5060501;28;45343;-47
2021/12/02 10:57:48;;;;;;;;;1.00;1.00;;;;;9.49;57.94;100430.59;5060561;28;45536;-44
2021/12/02 11:00:17;;;;;;;;;2.75;1.25;;;;;9.57;57.99;100414.75;5072108;27;45379;-44
2021/12/02 11:02:48;;;;;;;;;1.75;1.00;;;;;9.65;57.85;100420.75;5060131;28;45429;-45
2021/12/02 11:05:36;;;;;;;;;2.50;2.50;;;;;9.73;57.75;100416.22;5059129;28;45356;-44
2021/12/02 11:08:10;;;;;;;;;2.00;2.00;;;;;9.82;57.80;100411.75;5060462;28;45559;-45
2021/12/02 11:10:41;;;;;;;;;0.00;0.00;;;;;9.92;57.64;100411.56;5058786;28;46319;-45
2021/12/02 11:13:09;;;;;;;;;3.25;2.50;;;;;10.01;57.60;100412.28;5060570;28;45390;-44
2021/12/02 11:15:38;;;;;;;;;1.00;1.00;;;;;10.02;57.17;100398.28;5060414;28;45459;-47
2021/12/02 11:18:07;;;;;;;;;2.00;2.00;;;;;10.08;57.18;100401.66;5059952;28;45460;-44
2021/12/02 11:20:39;;;;;;;;;1.00;1.00;;;;;10.14;57.51;100397.19;5058988;28;45352;-47
2021/12/02 11:23:11;;;;;;;;;2.25;2.25;;;;;10.17;57.05;100391.91;5060213;28;45355;-45
2021/12/02 11:25:54;;;;;;;;;3.25;2.00;;;;;10.15;56.90;100393.66;5059936;28;45362;-45
2021/12/02 11:28:23;;;;;;;;;3.50;2.00;;;;;10.14;56.72;100399.81;5058554;28;45423;-44
2021/12/02 11:30:48;;;;;;;;;2.25;1.00;;;;;10.07;56.79;100399.94;5059882;28;45186;-44
2021/12/02 11:33:18;;;;;;;;;2.75;1.75;;;;;10.04;56.51;100404.38;5059949;28;45262;-45
2021/12/02 11:35:46;;;;;;;;;1.00;1.00;;;;;9.97;56.71;100393.09;5059907;28;45495;-45
2021/12/02 11:38:17;;;;;;;;;1.50;1.25;;;;;9.90;56.63;100396.75;5058555;28;45444;-45
2021/12/02 11:40:46;;;;;;;;;2.00;1.00;;;;;9.86;56.59;100390.69;5059541;28;46153;-45
2021/12/02 11:43:14;;;;;;;;;2.00;2.00;;;;;9.83;56.47;100395.97;5059601;28;45232;-44
2021/12/02 11:45:48;;;;;;;;;2.00;2.00;;;;;9.79;56.32;100390.81;5057345;28;45430;-44
2021/12/02 11:48:16;;;;;;;;;2.25;1.00;;;;;9.67;56.31;100392.75;5059551;28;45244;-44
2021/12/02 11:50:43;;;;;;;;;2.00;1.00;;;;;9.62;56.43;100415.53;5059585;28;45415;-42
2021/12/02 11:53:08;;;;;;;;;0.75;0.75;;;;;9.54;56.12;100427.91;5059532;28;45387;-43
2021/12/02 11:55:38;;;;;;;;;0.00;0.00;;;;;9.43;56.10;100422.81;5059932;28;45345;-43
2021/12/02 11:58:04;;;;;;;;;0.00;0.00;;;;;9.35;56.06;100416.84;5058290;28;45617;-43
2021/12/02 12:00:31;;;;;;;;;0.00;0.00;;;;;9.22;56.36;100416.13;5059534;28;45307;-43
2021/12/02 12:03:04;;;;;;;;;1.00;1.00;;;;;9.13;56.32;100417.09;5059386;28;45539;-44
2021/12/02 12:05:33;;;;;;;;;1.00;0.00;;;;;9.03;56.31;100403.28;5059541;28;45270;-43